Latest Weather Observations for Century Mine

IDQ60801

Issued at 1:02 pm EST Monday 24 April 2017 (issued every 30 minutes, with the page automatically refreshed every 10 minutes)

About weather observations | Map of weather stations | Latest weather observations for QLD | Other Formats
Station Details ID: 029167 Name: CENTURY MINE Lat: -18.76 Lon: 138.71 Height: 126.8 m
Data from the previous 72 hours. | See also: Recent months at Century Mine
Date/Time
EST
Temp
°C
App
Temp
°C
Dew
Point
°C
Rel
Hum
%
Delta-T
°C
Wind Press
QNH
hPa
Press
MSL
hPa
Rain since
9am
mm
Dir  Spd
km/h
Gust
km/h
Spd
kts
Gust
kts
24/01:00pm 34.7 33.4 12.4 26 13.4 ENE 11 20 6 11 1012.9 1012.1 0.0
24/12:30pm 34.5 32.5 12.8 27 13.1 ENE 15 26 8 14 1013.5 1012.7 0.0
24/12:00pm 34.0 31.9 13.5 29 12.5 NE 17 26 9 14 1013.9 1013.1 0.0
24/11:30am 33.0 31.3 13.6 31 11.8 NNE 15 22 8 12 1014.6 1013.8 0.0
24/11:00am 32.2 30.8 13.4 32 11.4 ENE 13 20 7 11 1015.2 1014.4 0.0
24/10:30am 31.4 29.7 13.6 33 10.8 NE 15 22 8 12 1015.6 1014.8 0.0
24/10:00am 30.3 28.3 12.7 34 10.4 E 15 24 8 13 1015.9 1015.1 0.0
24/09:30am 29.8 27.8 12.7 35 10.1 ENE 15 24 8 13 1015.7 1014.9 0.0
24/09:00am 29.0 26.8 12.0 35 9.9 E 15 24 8 13 1015.5 1014.7 0.0
24/08:30am 27.5 26.0 10.7 35 9.5 ESE 9 15 5 8 1015.0 1014.2 0.0
24/08:00am 25.0 23.7 11.2 42 7.8 SE 9 13 5 7 1014.6 1013.8 0.0
24/07:30am 23.2 22.4 11.6 48 6.6 SE 7 9 4 5 1014.3 1013.5 0.0
24/07:00am 21.1 19.7 12.3 57 5.0 SSE 11 13 6 7 1013.8 1013.0 0.0
24/06:30am 20.1 19.6 12.6 62 4.2 SE 7 11 4 6 1013.6 1012.8 0.0
24/06:00am 19.4 18.9 12.7 65 3.8 SSW 7 9 4 5 1013.1 1012.3 0.0
24/05:30am 19.2 19.0 12.9 67 3.6 S 6 7 3 4 1012.7 1011.9 0.0
24/05:00am 19.1 18.9 13.1 68 3.4 SSE 6 7 3 4 1012.7 1011.9 0.0
24/04:30am 19.4 19.1 13.3 68 3.5 SSW 7 9 4 5 1012.8 1012.0 0.0
24/04:00am 19.5 20.6 13.4 68 3.5 CALM 0 0 0 0 1012.9 1012.1 0.0
24/03:30am 20.5 21.3 13.7 65 3.9 N 2 7 1 4 1013.0 1012.2 0.0
24/03:00am 20.5 21.6 13.5 64 4.0 CALM 0 0 0 0 1013.0 1012.2 0.0
24/02:30am 20.9 22.0 13.4 62 4.3 CALM 0 0 0 0 1013.2 1012.4 0.0
24/02:00am 21.7 22.4 13.3 59 4.9 NW 2 6 1 3 1013.2 1012.4 0.0
24/01:30am 23.0 23.4 13.8 56 5.4 NNW 4 7 2 4 1013.7 1012.9 0.0
24/01:00am 22.0 23.1 13.6 59 4.9 CALM 0 0 0 0 1013.9 1013.1 0.0
24/12:30am 22.4 23.6 13.7 58 5.1 CALM 0 0 0 0 1014.1 1013.3 0.0
24/12:00am 22.8 22.9 13.8 57 5.3 S 6 7 3 4 1014.3 1013.5 0.0
 
Date/Time
EST
Temp
°C
App
Temp
°C
Dew
Point
°C
Rel
Hum
%
Delta-T
°C
Wind Press
QNH
hPa
Press
MSL
hPa
Rain since
9am
mm
Dir  Spd
km/h
Gust
km/h
Spd
kts
Gust
kts
23/11:30pm 22.9 22.7 13.7 56 5.4 SSW 7 9 4 5 1014.4 1013.6 0.0
23/11:00pm 23.2 23.1 13.9 56 5.5 SSW 7 9 4 5 1014.5 1013.7 0.0
23/10:30pm 23.4 24.6 13.8 54 5.6 CALM 0 0 0 0 1014.7 1013.9 0.0
23/10:00pm 23.8 24.9 13.6 52 6.0 CALM 0 0 0 0 1014.6 1013.8 0.0
23/09:30pm 24.4 25.5 13.6 51 6.3 CALM 0 0 0 0 1014.5 1013.7 0.0
23/09:00pm 25.1 25.4 13.3 48 6.9 ESE 4 6 2 3 1014.4 1013.6 0.0
23/08:30pm 26.0 25.7 12.8 44 7.7 SE 6 7 3 4 1014.1 1013.3 0.0
23/08:00pm 27.5 27.0 11.9 38 9.0 ESE 6 7 3 4 1013.7 1012.9 0.0
23/07:30pm 29.6 29.1 12.1 34 10.3 E 6 9 3 5 1013.4 1012.6 0.0
23/07:00pm 30.3 29.5 11.8 32 10.8 E 7 9 4 5 1013.1 1012.3 0.0
23/06:30pm 31.7 30.6 12.0 30 11.6 ESE 9 13 5 7 1012.9 1012.1 0.0
23/06:00pm 32.7 31.2 11.8 28 12.4 SE 11 17 6 9 1012.7 1011.9 0.0
23/05:30pm 33.5 31.5 11.4 26 13.0 E 13 19 7 10 1012.4 1011.6 0.0
23/05:00pm 34.3 32.5 12.0 25 13.3 ESE 13 20 7 11 1012.1 1011.3 0.0
23/04:30pm 34.6 33.6 12.3 26 13.4 SE 9 19 5 10 1011.9 1011.1 0.0
23/04:00pm 34.4 32.4 11.5 25 13.6 ESE 13 26 7 14 1011.9 1011.1 0.0
23/03:30pm 35.1 34.6 12.1 25 13.8 E 6 11 3 6 1012.1 1011.3 0.0
23/03:00pm 34.8 33.3 13.0 26 13.2 ENE 13 30 7 16 1012.3 1011.5 0.0
23/02:30pm 35.2 33.8 12.2 25 13.8 NE 11 20 6 11 1012.5 1011.7 0.0
23/02:00pm 34.1 32.7 13.5 28 12.6 SE 13 22 7 12 1012.9 1012.1 0.0
23/01:30pm 34.6 32.8 14.5 30 12.5 NE 17 32 9 17 1013.4 1012.6 0.0
23/01:00pm 34.4 33.9 14.8 30 12.2 NE 11 22 6 12 1013.8 1013.0 0.0
23/12:30pm 33.9 33.6 15.4 33 11.6 ENE 11 20 6 11 1014.3 1013.5 0.0
23/12:00pm 33.3 32.6 15.3 34 11.2 ENE 13 20 7 11 1015.0 1014.2 0.0
23/11:30am 32.0 31.1 15.9 38 10.1 E 15 26 8 14 1015.4 1014.6 0.0
23/11:00am 31.4 30.1 15.8 39 9.7 ENE 17 26 9 14 1015.9 1015.1 0.0
23/10:30am 30.2 28.6 15.9 42 8.9 E 19 26 10 14 1016.1 1015.3 0.0
23/10:00am 30.5 29.5 16.5 43 8.8 NE 17 26 9 14 1016.1 1015.3 0.0
23/09:30am 29.1 28.1 16.6 46 7.8 ENE 17 24 9 13 1016.0 1015.2 0.0
23/09:00am 28.0 27.0 16.6 50 7.1 ENE 17 32 9 17 1015.8 1015.0 0.0
23/08:30am 26.9 26.4 15.9 51 6.8 ENE 13 20 7 11 1015.6 1014.8 0.0
23/08:00am 25.4 24.7 15.4 54 6.1 E 13 17 7 9 1015.1 1014.3 0.0
23/07:30am 24.0 23.9 13.8 53 6.0 ESE 7 13 4 7 1014.6 1013.8 0.0
23/07:00am 23.2 22.9 14.5 58 5.2 SE 9 13 5 7 1013.9 1013.1 0.0
23/06:30am 19.7 19.9 14.3 71 3.1 ESE 6 7 3 4 1013.5 1012.7 0.0
23/06:00am 19.9 20.2 14.5 71 3.2 SE 6 7 3 4 1013.2 1012.4 0.0
23/05:30am 20.0 21.4 14.4 70 3.3 CALM 0 0 0 0 1012.9 1012.1 0.0
23/05:00am 20.2 21.7 14.6 70 3.3 CALM 0 0 0 0 1012.5 1011.7 0.0
23/04:30am 20.3 21.7 14.4 69 3.5 CALM 0 0 0 0 1012.4 1011.6 0.0
23/04:00am 20.6 21.6 14.3 67 3.7 SW 2 7 1 4 1012.4 1011.6 0.0
23/03:30am 21.0 21.1 14.4 66 3.9 SW 7 9 4 5 1012.4 1011.6 0.0
23/03:00am 21.4 21.7 14.6 65 4.0 SSW 6 7 3 4 1012.6 1011.8 0.0
23/02:30am 22.0 22.1 14.4 62 4.5 S 7 9 4 5 1012.8 1012.0 0.0
23/02:00am 22.7 23.3 14.3 59 5.0 SSW 4 7 2 4 1013.1 1012.3 0.0
23/01:30am 24.1 24.4 14.5 55 5.7 ESE 6 11 3 6 1013.3 1012.5 0.0
23/01:00am 25.4 25.8 14.8 52 6.4 WNW 6 7 3 4 1013.4 1012.6 0.0
23/12:30am 24.8 24.8 15.1 54 5.9 NW 9 17 5 9 1013.6 1012.8 0.0
23/12:00am 23.8 23.5 14.5 56 5.5 NNW 9 13 5 7 1013.8 1013.0 0.0
 
Date/Time
EST
Temp
°C
App
Temp
°C
Dew
Point
°C
Rel
Hum
%
Delta-T
°C
Wind Press
QNH
hPa
Press
MSL
hPa
Rain since
9am
mm
Dir  Spd
km/h
Gust
km/h
Spd
kts
Gust
kts
22/11:30pm 23.1 24.4 14.1 57 5.3 CALM 0 0 0 0 1013.8 1013.0 0.0
22/11:00pm 23.6 24.9 14.0 55 5.7 CALM 0 0 0 0 1014.1 1013.3 0.0
22/10:30pm 23.9 25.2 14.0 54 5.8 CALM 0 0 0 0 1014.2 1013.4 0.0
22/10:00pm 24.5 25.8 14.0 52 6.2 CALM 0 0 0 0 1014.3 1013.5 0.0
22/09:30pm 25.0 25.1 13.9 50 6.6 SSE 6 7 3 4 1014.3 1013.5 0.0
22/09:00pm 25.7 25.9 14.2 49 6.9 ESE 6 6 3 3 1014.1 1013.3 0.0
22/08:30pm 26.1 26.7 13.2 44 7.6 E 2 6 1 3 1013.8 1013.0 0.0
22/08:00pm 27.2 27.3 12.8 41 8.5 ESE 4 6 2 3 1013.4 1012.6 0.0
22/07:30pm 28.9 28.7 11.9 35 9.9 E 4 7 2 4 1012.9 1012.1 0.0
22/07:00pm 30.2 29.7 12.1 32 10.6 E 6 9 3 5 1012.7 1011.9 0.0
22/06:30pm 31.4 30.8 12.2 30 11.4 E 7 11 4 6 1012.5 1011.7 0.0
22/06:00pm 32.9 30.7 12.0 28 12.4 ESE 15 20 8 11 1012.2 1011.4 0.0
22/05:30pm 33.7 32.5 12.7 28 12.6 ENE 11 17 6 9 1011.8 1011.0 0.0
22/05:00pm 33.4 32.4 12.4 28 12.6 E 9 15 5 8 1011.5 1010.8 0.0
22/04:30pm 33.5 32.4 11.9 27 12.8 E 9 11 5 6 1011.3 1010.6 0.0
22/04:00pm 34.2 32.4 12.0 26 13.3 E 13 19 7 10 1011.3 1010.6 0.0
22/03:30pm 35.5 33.8 12.5 25 13.9 ENE 13 22 7 12 1011.3 1010.6 0.0
22/03:00pm 34.9 34.7 13.7 28 13.0 ENE 7 19 4 10 1011.5 1010.8 0.0
22/02:30pm 36.2 34.9 13.6 25 13.9 NNE 13 28 7 15 1011.9 1011.1 0.0
22/02:00pm 35.2 33.8 13.4 27 13.3 NE 13 28 7 15 1012.3 1011.5 0.0
22/01:30pm 35.1 34.4 14.4 29 12.8 NE 11 20 6 11 1012.7 1011.9 0.0
22/01:00pm 33.8 32.2 13.8 30 12.2 ENE 15 20 8 11 1013.4 1012.6 0.0
22/12:30pm 34.1 32.9 15.1 32 11.9 NE 15 24 8 13 1014.0 1013.2 0.0
22/12:00pm 33.3 31.6 14.8 32 11.5 NE 17 26 9 14 1014.6 1013.8 0.0
22/11:30am 32.9 31.4 15.4 35 10.9 ENE 17 26 9 14 1015.1 1014.3 0.0
22/11:00am 32.3 31.3 16.6 39 10.0 ENE 17 24 9 13 1015.6 1014.8 0.0
22/10:30am 31.8 30.8 16.5 39 9.7 NE 17 26 9 14 1015.8 1015.0 0.0
22/10:00am 30.6 29.2 16.6 43 8.8 E 19 28 10 15 1015.7 1014.9 0.0
22/09:30am 30.0 29.1 16.8 45 8.3 ENE 17 24 9 13 1015.5 1014.7 0.0
22/09:00am 28.9 29.2 17.1 49 7.4 E 11 17 6 9 1015.4 1014.6 0.0
22/08:30am 26.9 27.0 15.6 50 6.9 E 9 13 5 7 1015.2 1014.4 0.0
22/08:00am 24.0 25.2 16.0 61 4.9 SSE 4 7 2 4 1014.8 1014.0 0.0
22/07:30am 21.1 21.8 16.1 73 3.0 SE 7 9 4 5 1014.3 1013.5 0.0
22/07:00am 19.4 19.3 14.9 75 2.6 S 9 9 5 5 1013.7 1012.9 0.0
22/06:30am 18.8 18.8 14.3 75 2.6 SW 7 9 4 5 1013.2 1012.4 0.0
22/06:00am 19.2 20.2 14.2 73 2.9 NNE 2 9 1 5 1012.7 1011.9 0.0
22/05:30am 19.1 20.4 14.1 73 2.9 CALM 0 0 0 0 1012.4 1011.6 0.0
22/05:00am 19.2 19.7 14.0 72 3.0 SSW 4 6 2 3 1012.2 1011.4 0.0
22/04:30am 19.4 19.3 14.0 71 3.1 SSW 7 7 4 4 1012.2 1011.4 0.0
22/04:00am 19.6 20.1 14.0 70 3.2 S 4 9 2 5 1012.2 1011.4 0.0
22/03:30am 19.9 21.1 13.8 68 3.5 CALM 0 0 0 0 1012.4 1011.6 0.0
22/03:00am 20.7 22.0 14.1 66 3.8 CALM 0 2 0 1 1012.5 1011.7 0.0
22/02:30am 20.7 21.2 14.1 66 3.8 S 4 9 2 5 1012.7 1011.9 0.0
22/02:00am 21.3 21.8 14.0 63 4.3 S 4 6 2 3 1013.0 1012.2 0.0
22/01:30am 21.4 22.7 14.1 63 4.3 CALM 0 0 0 0 1013.5 1012.7 0.0
22/01:00am 21.9 22.3 13.8 60 4.7 NW 4 6 2 3 1013.7 1012.9 0.0
22/12:30am 22.8 23.6 13.8 57 5.3 NW 2 7 1 4 1013.9 1013.1 0.0
22/12:00am 22.2 23.5 14.1 60 4.8 CALM 0 0 0 0 1014.0 1013.2 0.0
 
Date/Time
EST
Temp
°C
App
Temp
°C
Dew
Point
°C
Rel
Hum
%
Delta-T
°C
Wind Press
QNH
hPa
Press
MSL
hPa
Rain since
9am
mm
Dir  Spd
km/h
Gust
km/h
Spd
kts
Gust
kts
21/11:30pm 22.6 23.9 14.2 59 4.9 CALM 0 0 0 0 1014.1 1013.3 0.0
21/11:00pm 23.1 24.3 13.8 55 5.5 CALM 0 0 0 0 1014.4 1013.6 0.0
21/10:30pm 23.3 23.4 13.8 55 5.6 SSW 6 9 3 5 1014.4 1013.6 0.0
21/10:00pm 23.9 24.8 14.0 54 5.8 SSE 2 7 1 4 1014.4 1013.6 0.0
21/09:30pm 24.4 24.5 13.9 52 6.2 SSE 6 7 3 4 1014.4 1013.6 0.0
21/09:00pm 24.8 25.2 13.7 50 6.5 SSE 4 6 2 3 1014.2 1013.4 0.0
21/08:30pm 25.6 26.7 13.5 47 7.1 CALM 0 4 0 2 1014.0 1013.2 0.0
21/08:00pm 26.6 26.3 12.6 42 8.2 E 6 7 3 4 1013.5 1012.7 0.0
21/07:30pm 28.1 28.1 12.5 38 9.2 E 4 7 2 4 1013.2 1012.4 0.0
21/07:00pm 29.8 29.2 11.8 33 10.5 ENE 6 9 3 5 1013.0 1012.2 0.0
21/06:30pm 31.3 30.3 12.2 31 11.3 ENE 9 13 5 7 1012.6 1011.8 0.0
21/06:00pm 32.6 30.9 12.3 29 12.1 ENE 13 20 7 11 1012.2 1011.4 0.0
21/05:30pm 33.4 31.7 12.4 28 12.6 E 13 24 7 13 1011.9 1011.1 0.0
21/05:00pm 33.7 31.5 12.1 27 12.9 ESE 15 24 8 13 1011.6 1010.9 0.0
21/04:30pm 34.1 32.2 11.9 26 13.2 ESE 13 26 7 14 1011.8 1011.0 0.0
21/04:00pm 34.4 32.6 12.1 26 13.4 ESE 13 19 7 10 1011.8 1011.0 0.0
21/03:30pm 33.9 32.0 11.7 26 13.2 ESE 13 24 7 13 1012.0 1011.2 0.0
21/03:00pm 34.5 32.7 12.2 26 13.4 E 13 26 7 14 1012.2 1011.4 0.0
21/02:30pm 34.3 33.6 13.2 28 12.8 ENE 9 19 5 10 1012.5 1011.7 0.0
21/02:00pm 34.0 31.9 12.4 27 13.0 ENE 15 26 8 14 1013.0 1012.2 0.0
21/01:30pm 34.1 33.1 13.5 28 12.6 ENE 11 24 6 13 1013.3 1012.5 0.0

Other Formats:

Comma delimited format used in spreadsheet applications
http://www.bom.gov.au/fwo/IDQ60801/IDQ60801.94261.axf

JavaScript Object Notation format (JSON) in row-major order
http://www.bom.gov.au/fwo/IDQ60801/IDQ60801.94261.json